createdAt,value
2023-04-30T00:09:59.626Z,86.70
2023-04-30T00:12:32.624Z,86.80
2023-04-30T00:33:14.958Z,87.50
2023-04-30T00:41:56.003Z,87.90
2023-04-30T00:44:58.264Z,87.90
2023-04-30T00:55:19.170Z,88.00
2023-04-30T00:55:35.460Z,88.10
2023-04-30T01:09:52.897Z,88.40
2023-04-30T01:17:05.033Z,88.80
2023-04-30T01:19:48.018Z,88.90
2023-04-30T01:22:57.111Z,89.00
2023-04-30T01:26:21.394Z,89.20
2023-04-30T01:28:57.763Z,89.30
2023-04-30T01:31:32.127Z,89.40
2023-04-30T01:39:04.017Z,89.60
2023-04-30T01:41:40.699Z,89.60
2023-04-30T01:52:15.325Z,90.00
2023-04-30T01:58:10.379Z,90.10
2023-04-30T02:02:10.211Z,90.10
2023-04-30T02:17:12.662Z,90.10
2023-04-30T02:25:34.513Z,90.10
2023-04-30T02:31:48.891Z,90.20
2023-04-30T02:36:04.771Z,90.30
2023-04-30T02:41:38.718Z,90.30
2023-04-30T02:49:47.160Z,90.40
2023-04-30T02:56:22.700Z,90.50
2023-04-30T03:08:41.494Z,90.70
2023-04-30T03:15:09.825Z,90.70
2023-04-30T03:24:09.307Z,90.80
2023-04-30T03:26:40.562Z,90.80
2023-04-30T03:34:18.582Z,90.80
2023-04-30T03:40:44.131Z,90.80
2023-04-30T03:44:02.018Z,90.90
2023-04-30T04:04:55.468Z,91.10
2023-04-30T04:08:01.300Z,91.20
2023-04-30T04:10:52.307Z,91.20
2023-04-30T04:28:16.098Z,91.40
2023-04-30T04:36:11.276Z,91.40
2023-04-30T04:49:08.898Z,91.40
2023-04-30T05:00:11.551Z,91.40
2023-04-30T05:05:52.867Z,91.40
2023-04-30T06:21:47.783Z,90.10
2023-04-30T06:26:01.957Z,90.00
2023-04-30T06:40:20.193Z,89.50
2023-04-30T06:43:00.865Z,89.30
2023-04-30T06:45:56.674Z,89.30
2023-04-30T06:48:29.762Z,89.80
2023-04-30T06:52:10.269Z,89.10
2023-04-30T06:55:18.396Z,88.90
2023-04-30T06:58:10.207Z,88.80
2023-04-30T07:01:45.411Z,88.80
2023-04-30T07:04:21.769Z,88.60
2023-04-30T07:07:15.771Z,88.50
2023-04-30T07:13:42.784Z,88.30
2023-04-30T07:16:21.048Z,88.10
2023-04-30T07:19:01.635Z,87.90
2023-04-30T07:21:35.292Z,87.80
2023-04-30T07:24:46.678Z,87.70
2023-04-30T07:28:29.703Z,87.40
2023-04-30T07:31:29.759Z,87.10
2023-04-30T07:47:11.807Z,86.60
2023-04-30T07:53:02.187Z,86.20
2023-04-30T07:53:10.290Z,86.00
2023-04-30T07:56:44.549Z,86.10
2023-04-30T08:00:08.082Z,85.80
2023-04-30T08:07:59.376Z,85.40
2023-04-30T08:10:40.999Z,85.20
2023-04-30T08:13:49.208Z,85.20
2023-04-30T08:16:50.919Z,85.00
2023-04-30T08:22:12.386Z,84.80
2023-04-30T08:25:05.372Z,84.70
2023-04-30T08:31:47.349Z,84.00
2023-04-30T08:51:11.307Z,83.20
2023-04-30T08:57:02.011Z,83.00
2023-04-30T08:59:36.943Z,82.70
2023-04-30T09:03:00.611Z,82.90
2023-04-30T09:05:39.401Z,82.50
2023-04-30T09:09:27.726Z,82.20
2023-04-30T09:11:53.116Z,81.90
2023-04-30T09:14:50.691Z,81.80
2023-04-30T09:25:59.049Z,81.20
2023-04-30T09:28:31.969Z,80.90
2023-04-30T09:31:03.470Z,80.80
2023-04-30T09:38:38.166Z,80.30
2023-04-30T09:45:12.739Z,79.90
2023-04-30T09:56:26.205Z,79.30
2023-04-30T10:12:15.752Z,78.90
2023-04-30T10:14:55.663Z,78.10
2023-04-30T10:17:41.160Z,77.70
2023-04-30T10:20:28.559Z,77.30
2023-04-30T10:23:33.472Z,76.90
2023-04-30T10:26:08.140Z,76.10
2023-04-30T10:29:01.345Z,75.80
2023-04-30T10:31:34.169Z,74.90
2023-04-30T10:34:41.639Z,74.40
2023-04-30T10:37:30.157Z,73.60
2023-04-30T10:40:00.294Z,73.00
2023-04-30T10:42:34.437Z,72.60
2023-04-30T10:45:12.942Z,72.20
2023-04-30T10:48:27.982Z,71.50
2023-04-30T10:51:10.531Z,71.00
2023-04-30T10:53:50.230Z,70.60
2023-04-30T10:56:52.532Z,70.30
2023-04-30T11:04:40.022Z,69.40
2023-04-30T11:12:50.206Z,68.40
2023-04-30T11:16:40.693Z,68.00
2023-04-30T11:24:31.107Z,67.50
2023-04-30T11:27:29.621Z,67.00
2023-04-30T11:30:32.060Z,66.60
2023-04-30T11:33:12.939Z,66.50
2023-04-30T11:35:55.045Z,66.20
2023-04-30T11:38:41.586Z,65.90
2023-04-30T11:49:58.125Z,65.40
2023-04-30T11:54:10.891Z,65.20
2023-04-30T11:56:51.415Z,65.00
2023-04-30T11:59:44.621Z,64.90
2023-04-30T12:02:29.561Z,64.50
2023-04-30T12:05:42.382Z,64.50
2023-04-30T12:08:21.233Z,64.10
2023-04-30T12:10:56.138Z,64.10
2023-04-30T12:13:29.686Z,63.90
2023-04-30T12:16:01.040Z,63.70
2023-04-30T12:18:31.178Z,63.30
2023-04-30T12:21:01.222Z,63.10
2023-04-30T12:23:31.702Z,62.80
2023-04-30T12:26:02.021Z,62.50
2023-04-30T12:28:32.112Z,62.00
2023-04-30T12:31:02.556Z,61.70
2023-04-30T12:33:32.431Z,61.60
2023-04-30T12:35:59.746Z,61.40
2023-04-30T12:38:27.168Z,60.80
2023-04-30T12:40:58.024Z,60.20
2023-04-30T12:43:25.400Z,60.00
2023-04-30T12:46:01.340Z,59.70
2023-04-30T12:48:31.670Z,59.40
2023-04-30T12:51:03.427Z,59.10
2023-04-30T12:53:31.766Z,58.30
2023-04-30T12:56:10.118Z,58.40
2023-04-30T12:58:40.063Z,57.90
2023-04-30T13:01:13.690Z,57.60
2023-04-30T13:03:41.760Z,56.80
2023-04-30T13:06:10.344Z,56.80
2023-04-30T13:08:56.173Z,56.60
2023-04-30T13:12:01.117Z,56.30
2023-04-30T13:14:31.328Z,55.90
2023-04-30T13:17:08.583Z,56.00
2023-04-30T13:20:40.614Z,55.70
2023-04-30T13:24:45.994Z,55.30
2023-04-30T13:28:52.883Z,55.70
2023-04-30T13:34:43.913Z,56.20
2023-04-30T13:41:52.717Z,56.00
2023-04-30T13:50:20.545Z,55.40
2023-04-30T14:06:20.589Z,53.00
2023-04-30T14:10:12.537Z,53.70
2023-04-30T14:12:41.671Z,53.90
2023-04-30T14:15:09.386Z,53.60
2023-04-30T14:18:40.697Z,52.80
2023-04-30T14:21:10.881Z,51.70
2023-04-30T14:23:49.903Z,51.10
2023-04-30T14:26:23.088Z,49.70
2023-04-30T14:29:12.456Z,49.50
2023-04-30T14:31:42.362Z,48.80
2023-04-30T14:35:58.738Z,49.10
2023-04-30T14:42:13.931Z,47.70
2023-04-30T14:45:05.967Z,47.70
2023-04-30T14:47:33.738Z,48.30
2023-04-30T14:50:10.858Z,48.40
2023-04-30T14:53:33.093Z,47.70
2023-04-30T14:56:22.210Z,46.50
2023-04-30T14:58:59.727Z,47.00
2023-04-30T15:01:30.980Z,46.40
2023-04-30T15:04:10.177Z,46.30
2023-04-30T15:07:10.058Z,46.10
2023-04-30T15:11:02.560Z,45.90
2023-04-30T15:13:33.083Z,45.10
2023-04-30T15:16:07.684Z,45.00
2023-04-30T15:18:45.915Z,45.10
2023-04-30T15:22:11.033Z,44.90
2023-04-30T15:29:53.121Z,44.60
2023-04-30T15:32:27.229Z,45.40
2023-04-30T15:34:55.544Z,45.20
2023-04-30T15:42:05.408Z,44.00
2023-04-30T15:45:06.974Z,43.40
2023-04-30T15:48:59.513Z,43.30
2023-04-30T15:51:50.283Z,43.40
2023-04-30T15:54:19.959Z,43.00
2023-04-30T15:56:51.723Z,42.90
2023-04-30T15:59:21.216Z,42.00
2023-04-30T16:05:09.041Z,41.40
2023-04-30T16:07:43.065Z,41.40
2023-04-30T16:17:31.323Z,45.60
2023-04-30T16:20:08.982Z,44.90
2023-04-30T16:22:46.340Z,43.60
2023-04-30T16:25:21.119Z,43.00
2023-04-30T16:27:54.011Z,42.30
2023-04-30T16:30:21.188Z,41.70
2023-04-30T16:33:20.248Z,41.70
2023-04-30T16:35:49.996Z,41.30
2023-04-30T16:38:45.464Z,41.20
2023-04-30T16:44:28.465Z,42.00
2023-04-30T16:47:04.910Z,42.00
2023-04-30T16:50:11.522Z,42.00
2023-04-30T16:57:07.368Z,41.50
2023-04-30T16:59:43.170Z,42.10
2023-04-30T17:02:21.608Z,41.80
2023-04-30T17:04:51.479Z,41.80
2023-04-30T17:07:22.732Z,41.70
2023-04-30T17:09:53.022Z,42.20
2023-04-30T17:12:29.947Z,42.60
2023-04-30T17:14:59.759Z,43.10
2023-04-30T17:17:29.703Z,43.60
2023-04-30T17:20:00.121Z,43.80
2023-04-30T17:22:29.806Z,43.90
2023-04-30T17:25:02.385Z,44.10
2023-04-30T17:27:31.549Z,44.30
2023-04-30T17:30:37.270Z,44.90
2023-04-30T17:33:07.475Z,45.30
2023-04-30T17:36:52.558Z,46.10
2023-04-30T17:39:19.688Z,46.30
2023-04-30T17:42:12.977Z,46.00
2023-04-30T17:44:49.115Z,45.20
2023-04-30T17:47:27.790Z,45.40
2023-04-30T17:49:59.615Z,46.20
2023-04-30T17:52:26.965Z,47.40
2023-04-30T17:59:07.598Z,49.40
2023-04-30T18:01:42.361Z,50.40
2023-04-30T18:04:26.320Z,50.80
2023-04-30T18:07:20.637Z,51.10
2023-04-30T18:10:00.526Z,51.50
2023-04-30T18:12:31.060Z,51.80
2023-04-30T18:14:59.580Z,52.10
2023-04-30T18:17:29.382Z,52.30
2023-04-30T18:19:58.984Z,52.60
2023-04-30T18:22:31.162Z,52.80
2023-04-30T18:25:42.420Z,53.00
2023-04-30T18:28:36.784Z,53.20
2023-04-30T18:31:09.577Z,53.60
2023-04-30T18:33:41.223Z,53.80
2023-04-30T18:36:08.617Z,54.10
2023-04-30T18:38:39.035Z,54.30
2023-04-30T18:41:09.723Z,54.50
2023-04-30T18:43:40.906Z,54.70
2023-04-30T18:46:09.581Z,54.90
2023-04-30T18:48:39.778Z,55.10
2023-04-30T18:51:20.412Z,55.30
2023-04-30T18:53:50.785Z,55.50
2023-04-30T18:56:21.178Z,55.80
2023-04-30T18:59:01.418Z,56.10
2023-04-30T19:06:40.090Z,56.50
2023-04-30T19:09:38.800Z,56.90
2023-04-30T19:12:12.708Z,57.20
2023-04-30T19:14:48.204Z,57.50
2023-04-30T19:17:22.468Z,57.90
2023-04-30T19:19:50.415Z,58.20
2023-04-30T19:22:31.600Z,58.50
2023-04-30T19:25:02.057Z,58.70
2023-04-30T19:27:32.239Z,58.90
2023-04-30T19:30:02.811Z,59.10
2023-04-30T19:33:03.897Z,59.20
2023-04-30T19:35:31.870Z,59.40
2023-04-30T19:41:12.939Z,59.80
2023-04-30T19:43:40.947Z,60.10
2023-04-30T19:46:08.201Z,60.40
2023-04-30T19:48:39.910Z,60.60
2023-04-30T19:51:09.390Z,60.70
2023-04-30T19:53:36.669Z,60.90
2023-04-30T19:56:03.840Z,61.10
2023-04-30T19:58:38.208Z,61.30
2023-04-30T20:01:18.393Z,61.50
2023-04-30T20:03:45.776Z,61.70
2023-04-30T20:06:25.934Z,61.90
2023-04-30T20:09:49.781Z,62.20
2023-04-30T20:12:20.665Z,62.40
2023-04-30T20:15:01.010Z,62.70
2023-04-30T20:17:50.862Z,62.90
2023-04-30T20:20:39.520Z,62.90
2023-04-30T20:23:20.473Z,63.00
2023-04-30T20:25:50.388Z,63.20
2023-04-30T20:28:20.560Z,63.20
2023-04-30T20:30:50.582Z,63.40
2023-04-30T20:33:20.029Z,63.50
2023-04-30T20:35:50.128Z,63.50
2023-04-30T20:38:21.879Z,63.60
2023-04-30T20:40:52.180Z,63.70
2023-04-30T20:43:27.748Z,63.80
2023-04-30T20:46:30.152Z,63.80
2023-04-30T20:49:06.685Z,63.90
2023-04-30T20:51:34.223Z,64.00
2023-04-30T20:54:15.149Z,64.00
2023-04-30T20:56:45.118Z,64.10
2023-04-30T20:59:17.855Z,64.20
2023-04-30T21:01:44.941Z,64.30
2023-04-30T21:04:11.982Z,64.30
2023-04-30T21:06:43.098Z,64.40
2023-04-30T21:09:12.780Z,64.40
2023-04-30T21:11:40.531Z,64.50
2023-04-30T21:14:40.434Z,64.60
2023-04-30T21:17:10.863Z,65.30
2023-04-30T21:19:41.547Z,64.90
2023-04-30T21:22:08.737Z,64.90
2023-04-30T21:24:35.889Z,65.00
2023-04-30T21:27:04.331Z,65.00
2023-04-30T21:29:42.894Z,65.10
2023-04-30T21:32:16.569Z,65.20
2023-04-30T21:34:50.444Z,65.30
2023-04-30T21:38:01.958Z,65.30
2023-04-30T21:44:49.067Z,65.60
2023-04-30T21:47:33.490Z,65.70
2023-04-30T21:50:03.389Z,65.80
2023-04-30T21:53:06.981Z,65.80
2023-04-30T22:00:01.563Z,65.80
2023-04-30T22:02:32.826Z,66.00
2023-04-30T22:05:00.025Z,66.10
2023-04-30T22:07:30.025Z,66.20
2023-04-30T22:09:58.599Z,66.30
2023-04-30T22:12:25.838Z,66.30
2023-04-30T22:14:53.698Z,66.40
2023-04-30T22:17:21.196Z,66.40
2023-04-30T22:19:48.479Z,66.60
2023-04-30T22:22:15.824Z,66.60
2023-04-30T22:24:43.411Z,66.70
2023-04-30T22:27:24.262Z,66.70
2023-04-30T22:29:56.604Z,66.70
2023-04-30T22:37:31.284Z,66.90
2023-04-30T22:40:03.763Z,67.00
2023-04-30T22:42:31.465Z,67.20
2023-04-30T22:45:01.649Z,67.20
2023-04-30T22:47:34.745Z,67.30
2023-04-30T22:50:05.200Z,67.40
2023-04-30T22:52:35.198Z,67.50
2023-04-30T22:55:03.267Z,67.50
2023-04-30T22:57:30.498Z,67.50
2023-04-30T22:59:58.096Z,67.60
2023-04-30T23:02:26.426Z,67.60
2023-04-30T23:04:53.753Z,67.80
2023-04-30T23:07:20.801Z,67.80
2023-04-30T23:09:47.737Z,67.90
2023-04-30T23:12:14.988Z,68.00
2023-04-30T23:14:42.603Z,68.10
2023-04-30T23:19:50.763Z,68.20
2023-04-30T23:22:17.934Z,68.20
2023-04-30T23:24:48.145Z,68.20
2023-04-30T23:27:15.538Z,68.30
2023-04-30T23:29:42.994Z,68.30
2023-04-30T23:32:10.256Z,68.40
2023-04-30T23:34:37.520Z,68.40
2023-04-30T23:37:04.618Z,68.50
2023-04-30T23:39:32.487Z,68.50
2023-04-30T23:41:59.781Z,68.50
2023-04-30T23:44:26.931Z,68.60
2023-04-30T23:46:56.021Z,68.70
2023-04-30T23:49:25.056Z,68.80
2023-04-30T23:51:52.323Z,68.80
2023-04-30T23:54:19.521Z,68.90
2023-04-30T23:56:46.698Z,68.90
2023-04-30T23:59:17.143Z,69.00
